Time;durP1;ratioP1;P1;durP2;ratioP2;P2;SDS_P1;SDS_P2;PMS_P1;PMS_P2;Temp;Humidity;BMP_temperature;BMP_pressure;BME280_temperature;BME280_humidity;BME280_pressure;Samples;Min_cycle;Max_cycle;Signal;HPM_P1;HPM_P2
2021/12/12 00:01:16;;;;;;;20.27;7.25;;;;;;;8.41;84.13;101758.59;5063117;28;20048;-67
2021/12/12 00:03:48;;;;;;;21.10;7.18;;;;;;;8.39;84.38;101755.31;5054643;28;20051;-67
2021/12/12 00:06:27;;;;;;;21.58;7.93;;;;;;;8.35;84.69;101753.41;5055660;28;20087;-64
2021/12/12 00:09:09;;;;;;;23.05;7.63;;;;;;;8.51;84.20;101750.38;5057249;28;20057;-65
2021/12/12 00:11:37;;;;;;;25.42;8.15;;;;;;;8.21;85.54;101752.25;5051521;28;20672;-65
2021/12/12 00:14:10;;;;;;;28.55;8.25;;;;;;;8.21;85.79;101744.81;5057457;28;20071;-64
2021/12/12 00:16:39;;;;;;;21.38;7.60;;;;;;;8.51;85.21;101747.63;5054590;28;20053;-63
2021/12/12 00:19:07;;;;;;;21.08;7.40;;;;;;;8.34;85.54;101744.31;5066977;28;20040;-65
2021/12/12 00:21:40;;;;;;;21.95;7.68;;;;;;;8.21;86.80;101746.75;5053464;28;20056;-65
2021/12/12 00:24:10;;;;;;;28.88;8.05;;;;;;;8.35;86.95;101742.41;5054460;28;20052;-64
2021/12/12 00:26:38;;;;;;;19.20;7.80;;;;;;;8.40;86.77;101742.41;5057744;28;20483;-65
2021/12/12 00:29:07;;;;;;;20.00;7.40;;;;;;;8.37;87.45;101740.22;5053246;28;20052;-64
2021/12/12 00:31:34;;;;;;;19.67;8.30;;;;;;;8.10;88.93;101740.44;5053990;28;20049;-64
2021/12/12 00:34:03;;;;;;;21.65;8.15;;;;;;;8.10;89.48;101748.66;5054000;28;20052;-65
2021/12/12 00:36:32;;;;;;;21.98;8.13;;;;;;;8.30;89.49;101747.91;5067658;28;20058;-64
2021/12/12 00:39:10;;;;;;;20.95;7.75;;;;;;;8.19;89.44;101749.78;5053854;28;20052;-64
2021/12/12 00:41:43;;;;;;;25.42;8.05;;;;;;;8.19;89.53;101741.56;5084880;28;20045;-65
2021/12/12 00:44:13;;;;;;;22.13;7.60;;;;;;;8.27;90.16;101742.94;5054308;28;20071;-67
2021/12/12 00:46:40;;;;;;;23.55;10.63;;;;;;;8.46;89.23;101744.03;5054060;28;20061;-65
2021/12/12 00:49:09;;;;;;;32.00;13.23;;;;;;;8.43;88.82;101745.44;5023616;28;20049;-64
2021/12/12 00:51:40;;;;;;;20.47;8.90;;;;;;;8.32;89.79;101749.25;5058449;28;20056;-64
2021/12/12 00:54:09;;;;;;;17.13;8.30;;;;;;;8.29;90.54;101755.31;5058977;28;20044;-65
2021/12/12 00:56:36;;;;;;;32.15;15.45;;;;;;;8.38;89.69;101750.94;5057775;28;20045;-65
2021/12/12 00:59:05;;;;;;;18.70;8.63;;;;;;;8.35;89.71;101756.13;5065102;28;20047;-66
2021/12/12 01:01:38;;;;;;;16.42;7.97;;;;;;;8.34;89.85;101746.25;5067565;28;20056;-64
2021/12/12 01:04:10;;;;;;;17.75;8.25;;;;;;;8.37;90.03;101748.47;5041238;28;20053;-66
2021/12/12 01:06:38;;;;;;;17.95;8.82;;;;;;;8.23;90.88;101745.38;5070561;28;20045;-65
2021/12/12 01:09:09;;;;;;;19.92;8.52;;;;;;;8.26;91.18;101739.41;5054134;28;20416;-65
2021/12/12 01:11:42;;;;;;;19.02;8.60;;;;;;;8.44;90.83;101730.59;5062776;28;20056;-65
2021/12/12 01:14:12;;;;;;;16.08;7.43;;;;;;;8.38;90.83;101741.84;5069868;28;20104;-64
2021/12/12 01:16:44;;;;;;;13.43;7.25;;;;;;;8.32;91.26;101746.50;5067633;28;20049;-65
2021/12/12 01:19:16;;;;;;;11.75;7.32;;;;;;;8.24;91.18;101738.00;5050927;28;20717;-65
2021/12/12 01:21:49;;;;;;;17.60;7.60;;;;;;;8.19;91.46;101737.97;5049303;28;20048;-65
2021/12/12 01:24:24;;;;;;;11.50;6.88;;;;;;;8.25;91.82;101743.22;5057121;28;20083;-64
2021/12/12 01:26:54;;;;;;;13.35;6.97;;;;;;;8.26;92.19;101733.06;5066742;28;20048;-63
2021/12/12 01:29:22;;;;;;;12.83;7.03;;;;;;;8.27;92.20;101731.97;5067921;28;20056;-63
2021/12/12 01:31:50;;;;;;;13.15;6.90;;;;;;;8.52;92.07;101737.47;5070751;28;20299;-64
2021/12/12 01:34:24;;;;;;;11.35;6.30;;;;;;;8.29;92.36;101744.31;5062905;28;20052;-64
2021/12/12 01:39:35;;;;;;;12.25;5.97;;;;;;;8.27;92.44;101745.69;5066116;28;20051;-64
2021/12/12 01:42:09;;;;;;;10.75;5.68;;;;;;;8.03;93.51;101745.34;5069737;28;20063;-64
2021/12/12 01:45:12;;;;;;;10.20;5.78;;;;;;;8.23;93.74;101750.06;5070062;28;20440;-65
2021/12/12 01:47:47;;;;;;;10.93;5.78;;;;;;;8.07;94.70;101749.22;5030640;28;20049;-64
2021/12/12 01:50:23;;;;;;;8.93;5.20;;;;;;;8.08;94.76;101750.00;5052177;28;20056;-65
2021/12/12 01:52:52;;;;;;;10.00;5.10;;;;;;;8.27;94.05;101752.00;5067769;28;20400;-66
2021/12/12 01:55:29;;;;;;;11.48;5.38;;;;;;;8.38;93.68;101753.66;5074316;28;20376;-65
2021/12/12 01:57:58;;;;;;;11.07;5.10;;;;;;;8.37;93.07;101759.44;5053688;28;20386;-67
2021/12/12 02:00:34;;;;;;;10.32;4.63;;;;;;;8.33;93.56;101758.31;5072817;28;20048;-67
2021/12/12 02:03:04;;;;;;;8.75;5.10;;;;;;;8.49;93.33;101754.50;5066739;28;20055;-62
2021/12/12 02:05:31;;;;;;;9.00;4.55;;;;;;;8.52;92.47;101763.00;5057392;28;20059;-63
2021/12/12 02:08:04;;;;;;;5.68;2.92;;;;;;;8.50;92.25;101776.19;5062474;28;20041;-62
2021/12/12 02:10:40;;;;;;;5.57;3.10;;;;;;;8.52;92.13;101765.75;5058151;28;20053;-63
2021/12/12 02:13:10;;;;;;;5.15;2.90;;;;;;;8.58;92.07;101769.31;5060046;28;20053;-62
2021/12/12 02:15:39;;;;;;;3.75;2.25;;;;;;;8.49;92.38;101776.47;5062883;28;20060;-62
2021/12/12 02:18:10;;;;;;;6.13;3.63;;;;;;;8.40;92.99;101778.94;5059235;28;20045;-63
2021/12/12 02:20:47;;;;;;;5.40;2.95;;;;;;;8.61;92.70;101774.28;5028265;28;20493;-61
2021/12/12 02:23:31;;;;;;;19.95;12.70;;;;;;;8.68;92.11;101772.06;5064187;28;20403;-62
2021/12/12 02:37:08;;;;;;;7.57;3.88;;;;;;;8.51;92.70;101786.06;5057678;28;20057;-67
2021/12/12 02:39:36;;;;;;;6.18;3.72;;;;;;;8.62;92.19;101784.97;5061331;28;20064;-62
2021/12/12 02:42:08;;;;;;;6.32;2.90;;;;;;;8.87;91.61;101790.44;5057938;28;20052;-63
2021/12/12 02:44:39;;;;;;;4.50;2.45;;;;;;;8.74;91.03;101787.44;5067798;28;20055;-63
2021/12/12 02:47:14;;;;;;;5.25;2.60;;;;;;;8.83;90.79;101792.13;5053399;28;20045;-63
2021/12/12 02:52:25;;;;;;;6.53;3.88;;;;;;;8.61;92.64;101793.50;5052735;28;20048;-62
2021/12/12 02:54:53;;;;;;;7.25;4.00;;;;;;;8.79;92.58;101801.16;5075458;28;20057;-63
2021/12/12 02:57:20;;;;;;;6.70;3.10;;;;;;;8.71;92.77;101805.31;5056469;28;20065;-64
2021/12/12 02:59:50;;;;;;;5.57;2.90;;;;;;;8.57;92.19;101801.47;5058720;28;20052;-63
2021/12/12 03:02:28;;;;;;;5.15;2.92;;;;;;;8.72;92.44;101798.69;5055572;28;20392;-63
2021/12/12 03:04:58;;;;;;;4.65;2.72;;;;;;;8.89;91.86;101795.69;5053935;28;20068;-63
2021/12/12 03:07:26;;;;;;;5.43;2.92;;;;;;;8.94;91.86;101801.19;5054823;28;20060;-63
2021/12/12 03:09:58;;;;;;;5.88;2.92;;;;;;;8.78;92.37;101810.53;5054417;28;20060;-62
2021/12/12 03:12:33;;;;;;;4.85;3.10;;;;;;;8.74;92.43;101802.00;5055412;28;20071;-62
2021/12/12 03:15:09;;;;;;;5.68;3.28;;;;;;;8.95;92.75;101806.41;5063546;28;20044;-63
2021/12/12 03:17:37;;;;;;;4.95;3.05;;;;;;;8.84;91.78;101812.97;5072144;28;20055;-62
2021/12/12 03:20:23;;;;;;;5.00;2.70;;;;;;;8.82;91.22;101806.94;5057522;28;20056;-63
2021/12/12 03:22:56;;;;;;;5.35;2.83;;;;;;;8.87;91.70;101803.38;5064862;28;20063;-64
2021/12/12 03:25:25;;;;;;;5.75;2.97;;;;;;;8.83;91.14;101802.28;5060643;28;20392;-62
2021/12/12 03:27:53;;;;;;;5.72;3.50;;;;;;;8.55;92.80;101803.66;5058716;28;20044;-63
2021/12/12 03:30:21;;;;;;;4.85;2.90;;;;;;;8.85;92.33;101806.41;5066947;28;20041;-64
2021/12/12 03:32:48;;;;;;;5.13;2.85;;;;;;;8.85;91.36;101806.41;5075306;28;20048;-64
2021/12/12 03:35:16;;;;;;;5.93;3.13;;;;;;;9.07;90.63;101804.19;5070059;28;20068;-63
2021/12/12 03:37:45;;;;;;;5.35;3.10;;;;;;;9.01;90.23;101805.28;5056135;28;20048;-65
2021/12/12 03:40:18;;;;;;;5.47;3.10;;;;;;;9.04;90.23;101807.50;5071422;28;20060;-62
2021/12/12 03:42:50;;;;;;;4.88;3.08;;;;;;;9.06;89.85;101802.53;5072536;28;20075;-64
2021/12/12 03:45:20;;;;;;;5.15;3.20;;;;;;;9.15;89.41;101804.72;5073832;28;20052;-63
2021/12/12 03:47:55;;;;;;;5.30;3.15;;;;;;;9.05;90.06;101806.38;5056204;28;20412;-65
2021/12/12 03:50:28;;;;;;;7.40;3.97;;;;;;;9.18;90.02;101807.75;5055850;28;20389;-63
2021/12/12 03:52:55;;;;;;;6.10;3.67;;;;;;;9.21;89.11;101803.59;5056091;28;20072;-63
2021/12/12 03:55:25;;;;;;;7.47;4.10;;;;;;;9.12;89.81;101803.34;5061482;28;20060;-64
2021/12/12 03:57:53;;;;;;;8.32;4.15;;;;;;;8.97;90.71;101803.38;5060382;28;20176;-64
2021/12/12 04:00:25;;;;;;;8.05;4.35;;;;;;;9.10;90.51;101805.53;5075829;28;20040;-63
2021/12/12 04:02:53;;;;;;;7.25;4.50;;;;;;;9.09;89.96;101807.47;5073181;28;20044;-62
2021/12/12 04:05:21;;;;;;;8.65;4.82;;;;;;;9.03;90.00;101810.53;5071785;28;20051;-63
2021/12/12 04:07:49;;;;;;;8.88;5.10;;;;;;;9.26;89.96;101809.09;5055159;28;20065;-63
2021/12/12 04:10:20;;;;;;;7.72;4.88;;;;;;;9.08;90.45;101802.25;5056708;28;20056;-62
2021/12/12 04:12:48;;;;;;;8.50;5.20;;;;;;;9.13;90.59;101815.16;5072358;28;20060;-61
2021/12/12 04:15:16;;;;;;;9.82;5.55;;;;;;;9.16;90.03;101811.84;5071132;28;20053;-63
2021/12/12 04:17:44;;;;;;;9.90;5.57;;;;;;;9.08;90.65;101816.00;5056487;28;20382;-62
2021/12/12 04:20:19;;;;;;;10.80;6.55;;;;;;;8.86;92.39;101813.53;5066349;28;20041;-62
2021/12/12 04:22:46;;;;;;;11.35;6.68;;;;;;;8.98;91.92;101824.22;5065698;28;20051;-63
2021/12/12 04:25:14;;;;;;;13.00;7.03;;;;;;;9.28;90.95;101823.38;5074024;28;20063;-62
2021/12/12 04:27:42;;;;;;;11.07;6.15;;;;;;;9.27;89.81;101819.00;5062929;28;20060;-62
2021/12/12 04:30:11;;;;;;;12.00;6.80;;;;;;;9.26;89.84;101817.34;5074694;28;20044;-62
2021/12/12 04:32:39;;;;;;;12.15;7.30;;;;;;;9.17;90.78;101827.25;5070226;28;20059;-63
2021/12/12 04:35:11;;;;;;;11.52;7.15;;;;;;;9.25;90.33;101829.44;5056694;28;20060;-62
2021/12/12 04:37:39;;;;;;;10.65;6.72;;;;;;;9.22;90.87;101830.84;5055107;28;20056;-62
2021/12/12 04:40:09;;;;;;;14.30;8.00;;;;;;;9.08;91.40;101825.06;5058055;28;20048;-62
2021/12/12 04:42:39;;;;;;;13.85;8.38;;;;;;;8.99;91.50;101837.72;5055577;28;20045;-63
2021/12/12 04:45:26;;;;;;;12.45;7.90;;;;;;;9.34;91.10;101833.28;5050962;28;20075;-62
2021/12/12 04:51:23;;;;;;;12.10;7.68;;;;;;;9.41;90.14;101836.56;5069020;28;20048;-64
2021/12/12 04:54:12;;;;;;;12.00;7.82;;;;;;;9.50;89.49;101851.41;5055639;28;20055;-64
2021/12/12 04:56:40;;;;;;;14.48;7.85;;;;;;;9.56;89.04;101848.34;5056739;28;20049;-63
2021/12/12 04:59:17;;;;;;;14.10;8.63;;;;;;;9.50;88.51;101854.94;5055069;28;20349;-64
2021/12/12 05:01:56;;;;;;;13.70;8.07;;;;;;;9.19;90.60;101855.28;5057317;28;20052;-64
2021/12/12 05:04:37;;;;;;;12.65;8.38;;;;;;;9.17;90.51;101846.50;5065376;28;20547;-64
2021/12/12 05:07:11;;;;;;;13.75;8.02;;;;;;;9.30;90.77;101852.25;5064076;28;20085;-63
2021/12/12 05:09:49;;;;;;;13.57;8.10;;;;;;;9.21;91.80;101853.91;5055708;28;20045;-63
2021/12/12 05:12:36;;;;;;;14.95;9.25;;;;;;;9.19;91.27;101847.06;5061960;28;20526;-62
2021/12/12 05:15:09;;;;;;;13.50;8.43;;;;;;;9.20;92.10;101852.28;5071412;28;20061;-63
2021/12/12 05:17:41;;;;;;;16.42;8.80;;;;;;;9.30;91.46;101854.16;5061343;28;20060;-62
2021/12/12 05:20:17;;;;;;;14.82;9.05;;;;;;;9.32;91.44;101854.72;5069177;28;20059;-62
2021/12/12 05:22:49;;;;;;;13.80;7.97;;;;;;;9.50;91.06;101859.66;5064160;28;20050;-64
2021/12/12 05:25:20;;;;;;;14.50;8.63;;;;;;;9.58;90.38;101859.06;5060875;28;20119;-62
2021/12/12 05:27:53;;;;;;;15.18;8.65;;;;;;;9.49;91.01;101860.72;5059093;28;20044;-62
2021/12/12 05:30:25;;;;;;;14.13;8.63;;;;;;;9.63;90.56;101848.03;5053430;28;20080;-63
2021/12/12 05:32:53;;;;;;;13.80;8.52;;;;;;;9.51;89.70;101858.53;5054327;28;20064;-62
2021/12/12 05:35:28;;;;;;;14.73;8.70;;;;;;;9.41;91.15;101869.56;5053375;28;20048;-63
2021/12/12 05:37:56;;;;;;;15.23;8.73;;;;;;;9.61;90.67;101872.25;5058815;28;20041;-63
2021/12/12 05:40:26;;;;;;;13.95;9.07;;;;;;;9.63;90.08;101859.88;5058867;28;20064;-62
2021/12/12 05:42:57;;;;;;;14.45;8.20;;;;;;;9.44;90.92;101861.56;5066517;28;20060;-63
2021/12/12 05:45:25;;;;;;;13.77;8.38;;;;;;;9.64;90.29;101872.50;5066159;28;20057;-62
2021/12/12 05:47:53;;;;;;;13.52;8.63;;;;;;;9.56;90.36;101869.50;5065411;28;20051;-63
2021/12/12 05:50:21;;;;;;;13.20;8.93;;;;;;;9.79;89.77;101868.91;5066609;28;20040;-63
2021/12/12 05:52:53;;;;;;;15.35;7.93;;;;;;;9.56;90.43;101880.50;5055274;28;20051;-63
2021/12/12 05:55:28;;;;;;;14.00;8.55;;;;;;;9.22;92.59;101885.81;5073359;28;20060;-65
2021/12/12 05:57:56;;;;;;;11.65;7.72;;;;;;;9.44;92.66;101878.06;5053537;28;20060;-65
2021/12/12 06:00:28;;;;;;;14.63;8.63;;;;;;;9.39;92.04;101889.09;5067267;28;20055;-66
2021/12/12 06:02:56;;;;;;;15.90;8.02;;;;;;;9.43;92.44;101879.16;5070581;28;20507;-65
2021/12/12 06:05:24;;;;;;;12.45;8.50;;;;;;;9.61;91.90;101884.09;5055987;28;20425;-66
2021/12/12 06:07:54;;;;;;;11.45;7.90;;;;;;;9.69;90.72;101885.44;5051165;28;20056;-65
2021/12/12 06:10:22;;;;;;;;;;;;;;;9.65;90.37;101887.94;5064751;28;20063;-65
2021/12/12 06:12:49;;;;;;;13.23;7.65;;;;;;;9.72;90.90;101891.22;5066007;28;20400;-66
2021/12/12 06:15:19;;;;;;;13.25;8.23;;;;;;;9.94;90.08;101882.59;5054682;28;20056;-65
2021/12/12 06:17:47;;;;;;;13.68;8.13;;;;;;;9.94;89.37;101897.19;5055059;28;20053;-65
2021/12/12 06:20:16;;;;;;;12.82;8.10;;;;;;;9.82;89.61;101904.94;5065257;28;20045;-65
2021/12/12 06:22:44;;;;;;;14.85;8.70;;;;;;;9.59;90.41;101904.75;5071082;28;20044;-65
2021/12/12 06:25:11;;;;;;;14.65;8.77;;;;;;;9.52;90.80;101902.25;5057506;28;20048;-67
2021/12/12 06:27:39;;;;;;;12.13;8.02;;;;;;;9.85;89.80;101906.31;5062528;28;20068;-65
2021/12/12 06:30:10;;;;;;;12.57;8.38;;;;;;;9.94;88.59;101897.19;5072965;28;20531;-66
2021/12/12 06:32:38;;;;;;;13.85;8.48;;;;;;;9.67;90.27;101905.00;5069857;28;20047;-65
2021/12/12 06:35:09;;;;;;;13.88;8.30;;;;;;;9.69;91.19;101911.00;5074477;28;20064;-66
2021/12/12 06:37:37;;;;;;;14.23;9.02;;;;;;;9.42;91.83;101912.44;5055183;28;20057;-66
2021/12/12 06:40:07;;;;;;;13.25;8.55;;;;;;;9.58;92.24;101919.56;5059007;28;20037;-65
2021/12/12 06:42:34;;;;;;;13.98;8.77;;;;;;;9.75;91.85;101911.84;5072753;28;20052;-65
2021/12/12 06:45:03;;;;;;;14.88;8.20;;;;;;;9.80;91.08;101914.56;5055442;28;20050;-65
2021/12/12 06:47:31;;;;;;;12.10;8.15;;;;;;;9.81;90.70;101913.47;5061832;28;20056;-65
2021/12/12 06:49:59;;;;;;;13.65;7.95;;;;;;;9.53;91.60;101914.91;5058766;28;20059;-65
2021/12/12 06:52:27;;;;;;;14.02;8.70;;;;;;;9.44;93.03;101921.25;5059159;28;20045;-67
2021/12/12 06:54:55;;;;;;;15.90;9.32;;;;;;;9.29;93.70;101930.34;5039243;28;20053;-64
2021/12/12 06:57:22;;;;;;;14.38;8.90;;;;;;;9.43;94.17;101936.09;5042029;28;20399;-65
2021/12/12 06:59:50;;;;;;;15.73;9.00;;;;;;;9.17;94.66;101937.22;5061385;28;20051;-65
2021/12/12 07:02:18;;;;;;;15.73;8.43;;;;;;;9.22;95.12;101939.97;5066995;28;20049;-65
2021/12/12 07:04:46;;;;;;;14.70;9.20;;;;;;;9.39;94.60;101944.09;5058575;28;20132;-65
2021/12/12 07:07:17;;;;;;;13.95;8.73;;;;;;;9.40;94.51;101937.47;5056181;28;20064;-65
2021/12/12 07:09:46;;;;;;;12.73;8.35;;;;;;;9.45;93.61;101944.91;5061668;28;20056;-65
2021/12/12 07:12:15;;;;;;;14.13;8.75;;;;;;;9.32;94.27;101942.69;5059778;28;20053;-64
2021/12/12 07:14:43;;;;;;;14.32;9.23;;;;;;;9.45;94.71;101944.91;5074093;28;20044;-64
2021/12/12 07:17:11;;;;;;;15.18;9.38;;;;;;;9.56;93.72;101949.28;5065571;28;20037;-64
2021/12/12 07:19:40;;;;;;;14.38;8.30;;;;;;;9.55;93.47;101947.66;5055544;28;20055;-63
2021/12/12 07:22:08;;;;;;;12.70;8.07;;;;;;;9.91;92.69;101954.72;5080956;28;20041;-64
2021/12/12 07:24:36;;;;;;;12.45;8.13;;;;;;;9.85;91.62;101955.84;5065906;28;20048;-63
2021/12/12 07:27:05;;;;;;;13.45;8.43;;;;;;;9.62;92.96;101956.44;5064183;28;20045;-64
2021/12/12 07:29:32;;;;;;;14.25;8.35;;;;;;;9.68;92.90;101949.81;5064790;28;20047;-64
2021/12/12 07:32:00;;;;;;;15.55;9.15;;;;;;;9.72;93.35;101964.66;5065423;28;20052;-63
2021/12/12 07:34:29;;;;;;;12.32;7.97;;;;;;;10.29;91.57;101959.59;5060705;28;20052;-63
2021/12/12 07:36:59;;;;;;;11.98;7.80;;;;;;;9.96;91.09;101965.72;5048504;28;20161;-63
2021/12/12 07:39:29;;;;;;;11.82;7.53;;;;;;;9.88;91.07;101969.88;5070600;28;20683;-65
2021/12/12 07:41:58;;;;;;;13.68;8.93;;;;;;;9.96;92.04;101976.72;5056083;28;20049;-65
2021/12/12 07:44:29;;;;;;;12.20;7.70;;;;;;;9.68;91.58;101961.66;5069412;28;20422;-64
2021/12/12 07:46:58;;;;;;;15.57;8.52;;;;;;;9.69;92.92;101976.25;5073922;28;20049;-63
2021/12/12 07:49:30;;;;;;;12.20;7.90;;;;;;;9.96;92.71;101973.97;5065313;28;20526;-63
2021/12/12 07:51:58;;;;;;;14.30;8.52;;;;;;;9.96;92.25;101968.47;5077474;28;20048;-65
2021/12/12 07:54:26;;;;;;;12.98;8.63;;;;;;;10.17;91.19;101973.69;5064237;28;20090;-66
2021/12/12 07:56:54;;;;;;;11.45;8.20;;;;;;;10.11;90.05;101980.31;5039662;28;20045;-65
2021/12/12 07:59:22;;;;;;;12.07;8.13;;;;;;;10.18;90.92;101980.03;5064196;28;20067;-64
2021/12/12 08:01:51;;;;;;;12.25;7.57;;;;;;;9.99;90.91;101981.66;5056694;28;20433;-64
2021/12/12 08:04:22;;;;;;;12.15;7.70;;;;;;;9.81;92.03;101988.63;5060806;28;20063;-65
2021/12/12 08:06:50;;;;;;;11.57;7.72;;;;;;;9.87;92.91;101981.16;5075250;28;20048;-64
2021/12/12 08:09:18;;;;;;;11.90;8.25;;;;;;;9.86;92.79;101980.34;5055232;28;20056;-65
2021/12/12 08:11:46;;;;;;;11.70;7.82;;;;;;;9.94;92.27;101987.19;5064440;28;20053;-65
2021/12/12 08:14:18;;;;;;;12.50;7.75;;;;;;;10.18;91.13;101985.53;5058765;28;20053;-66
2021/12/12 08:16:48;;;;;;;11.15;7.18;;;;;;;10.11;90.70;101985.00;5079946;28;20060;-66
2021/12/12 08:19:18;;;;;;;13.35;7.95;;;;;;;10.29;90.93;101989.88;5067796;28;20048;-65
2021/12/12 08:21:47;;;;;;;11.30;7.45;;;;;;;10.17;90.93;101987.44;5075046;28;20043;-67
2021/12/12 08:24:15;;;;;;;12.17;7.97;;;;;;;10.22;90.63;101989.34;5057802;28;20053;-65
2021/12/12 08:26:44;;;;;;;11.52;7.28;;;;;;;10.11;91.81;101994.06;5068914;28;20049;-61
2021/12/12 08:29:13;;;;;;;14.77;8.32;;;;;;;10.07;91.68;101992.97;5073850;28;20060;-62
2021/12/12 08:31:41;;;;;;;11.45;7.45;;;;;;;9.87;92.58;102003.16;5061652;28;20053;-64
2021/12/12 08:34:10;;;;;;;12.63;7.55;;;;;;;10.09;92.35;101995.47;5071374;28;20052;-62
2021/12/12 08:36:40;;;;;;;14.65;6.90;;;;;;;10.08;91.88;102002.03;5073342;28;21094;-62
2021/12/12 08:39:10;;;;;;;11.85;7.80;;;;;;;10.18;91.49;102002.06;5080084;28;20051;-62
2021/12/12 08:41:38;;;;;;;11.70;7.93;;;;;;;10.30;91.84;102012.75;5082614;28;20060;-61
2021/12/12 08:44:07;;;;;;;10.88;6.78;;;;;;;10.04;91.82;102004.50;5045667;28;20061;-63
2021/12/12 08:46:37;;;;;;;10.53;6.80;;;;;;;10.11;91.70;102012.53;5059789;28;20056;-63
2021/12/12 08:49:05;;;;;;;10.05;6.65;;;;;;;10.07;91.93;102008.66;5068704;28;20044;-62
2021/12/12 08:51:56;;;;;;;11.43;7.55;;;;;;;10.19;92.17;102007.28;5071234;28;20048;-63
2021/12/12 08:54:28;;;;;;;10.80;6.70;;;;;;;10.18;91.47;102015.81;5057219;28;20056;-62
2021/12/12 08:57:05;;;;;;;9.55;6.25;;;;;;;10.36;91.31;102011.63;5057291;28;20538;-63
2021/12/12 08:59:35;;;;;;;12.00;6.90;;;;;;;10.36;91.04;102006.09;5054938;28;20418;-63
2021/12/12 09:02:09;;;;;;;11.55;7.30;;;;;;;10.49;90.63;102019.28;5055933;28;20056;-62
2021/12/12 09:04:51;;;;;;;9.73;6.03;;;;;;;10.49;90.52;102017.38;5052700;28;20053;-62
2021/12/12 09:07:29;;;;;;;9.57;5.65;;;;;;;10.65;90.10;102018.13;5056929;28;20044;-62
2021/12/12 09:10:11;;;;;;;8.70;5.63;;;;;;;10.75;88.83;102013.41;5051629;28;20056;-63
2021/12/12 09:12:54;;;;;;;9.52;6.07;;;;;;;10.30;90.54;102032.03;5051832;28;20101;-62
2021/12/12 09:15:47;;;;;;;9.85;5.90;;;;;;;10.27;91.23;102027.88;5053102;28;20057;-63
2021/12/12 09:18:32;;;;;;;10.75;6.50;;;;;;;10.32;91.13;102032.56;5044296;28;20400;-65
2021/12/12 09:21:23;;;;;;;10.50;6.68;;;;;;;10.39;91.05;102033.91;5044986;28;20044;-65
2021/12/12 09:24:15;;;;;;;9.60;5.93;;;;;;;10.42;91.29;102029.78;5053982;28;20711;-62
2021/12/12 09:26:48;;;;;;;9.57;5.50;;;;;;;10.53;90.49;102037.72;5069422;28;20048;-70
2021/12/12 09:29:42;;;;;;;10.60;5.65;;;;;;;10.75;89.71;102021.66;5052179;28;20052;-68
2021/12/12 09:32:14;;;;;;;10.10;5.90;;;;;;;10.83;89.33;102025.75;5057245;28;20049;-70
2021/12/12 09:35:00;;;;;;;9.60;6.20;;;;;;;10.77;90.25;102029.66;5055306;28;20049;-69
2021/12/12 09:37:39;;;;;;;8.65;5.70;;;;;;;10.82;90.77;102026.88;5042201;28;20186;-70
2021/12/12 09:40:22;;;;;;;9.65;5.70;;;;;;;10.88;91.11;102029.31;5068486;28;20052;-66
2021/12/12 09:42:52;;;;;;;8.63;5.28;;;;;;;11.21;90.72;102025.78;5059750;28;20048;-69
2021/12/12 09:45:35;;;;;;;9.88;4.88;;;;;;;11.43;88.72;102033.66;5065204;28;20514;-68
2021/12/12 09:51:17;;;;;;;12.73;4.82;;;;;;;11.79;85.66;102028.69;5051942;28;20519;-68
2021/12/12 09:53:56;;;;;;;18.25;10.68;;;;;;;11.90;84.97;102011.75;5058127;28;20045;-69
2021/12/12 09:56:46;;;;;;;11.27;7.57;;;;;;;12.00;84.40;102027.38;5055335;28;20041;-68
2021/12/12 09:59:31;;;;;;;7.63;4.90;;;;;;;11.94;83.32;102025.81;5056062;28;20044;-68
2021/12/12 10:02:20;;;;;;;8.23;4.97;;;;;;;12.17;83.03;102025.84;5058795;28;20060;-68
2021/12/12 10:04:56;;;;;;;8.47;4.67;;;;;;;12.19;82.94;102031.06;5073060;28;20078;-68
2021/12/12 10:07:35;;;;;;;7.05;4.55;;;;;;;12.26;82.52;102029.59;5054062;28;20056;-69
2021/12/12 10:10:07;;;;;;;6.53;4.25;;;;;;;12.14;82.47;102033.88;5064815;28;20052;-69
2021/12/12 10:12:39;;;;;;;7.43;4.72;;;;;;;12.22;82.96;102033.25;5064579;28;20049;-68
2021/12/12 10:15:18;;;;;;;15.18;9.55;;;;;;;12.25;82.42;102036.25;5072633;28;20052;-68
2021/12/12 10:17:48;;;;;;;17.15;12.10;;;;;;;12.19;82.34;102036.59;5064341;28;20060;-68
2021/12/12 10:20:39;;;;;;;8.63;5.70;;;;;;;12.36;82.46;102031.44;5072693;28;20082;-67
2021/12/12 10:23:20;;;;;;;7.55;4.60;;;;;;;12.43;81.60;102032.72;5069058;28;20516;-68
2021/12/12 10:25:59;;;;;;;11.80;6.00;;;;;;;12.53;81.50;102030.97;5066693;28;20048;-67
2021/12/12 10:28:34;;;;;;;7.15;4.80;;;;;;;12.29;81.93;102031.78;5067196;28;20548;-68
2021/12/12 10:31:04;;;;;;;9.68;5.03;;;;;;;12.49;81.49;102039.03;5068036;28;20056;-67
2021/12/12 10:33:46;;;;;;;;;;;;;;;12.59;81.16;102041.66;5049332;28;20067;-69
2021/12/12 10:36:16;;;;;;;9.30;5.15;;;;;;;12.23;82.10;102045.94;5070142;28;19924;-68
2021/12/12 10:38:43;;;;;;;6.95;4.70;;;;;;;12.27;82.13;102047.03;5073089;28;20040;-69
2021/12/12 10:41:41;;;;;;;9.13;5.05;;;;;;;12.63;81.02;102039.13;5072067;28;20375;-68
2021/12/12 10:44:25;;;;;;;8.73;4.75;;;;;;;12.93;80.11;102042.34;5065846;28;20052;-67
2021/12/12 10:47:01;;;;;;;9.55;6.78;;;;;;;12.95;79.81;102036.50;5074352;28;20067;-68
2021/12/12 10:50:13;;;;;;;12.57;8.10;;;;;;;13.21;78.86;102030.38;5065067;28;20045;-67
2021/12/12 10:53:00;;;;;;;10.98;5.82;;;;;;;13.19;78.60;102038.13;5027841;28;20049;-69
2021/12/12 10:55:42;;;;;;;8.63;5.10;;;;;;;13.02;78.98;102037.00;5041232;28;20053;-68
2021/12/12 10:58:18;;;;;;;9.90;5.30;;;;;;;13.23;78.68;102035.59;5060153;28;20407;-68
2021/12/12 11:00:50;;;;;;;7.35;4.85;;;;;;;13.32;78.20;102040.13;5038534;28;20557;-68
2021/12/12 11:03:28;;;;;;;9.38;5.22;;;;;;;12.35;80.68;102040.84;5055949;28;20053;-69
2021/12/12 11:06:12;;;;;;;10.50;5.78;;;;;;;12.53;81.28;102042.03;5064590;28;20045;-69
2021/12/12 11:08:48;;;;;;;7.45;5.13;;;;;;;12.68;80.42;102037.13;5062870;28;20037;-69
2021/12/12 11:11:19;;;;;;;8.65;4.90;;;;;;;12.40;81.66;102041.63;5082713;28;20164;-68
2021/12/12 11:13:49;;;;;;;8.52;5.70;;;;;;;12.35;82.59;102041.66;5063379;28;20085;-67
2021/12/12 11:16:18;;;;;;;;;;;;;;;12.51;81.53;102042.31;5068661;28;20059;-65
2021/12/12 11:18:50;;;;;;;7.95;5.32;;;;;;;12.54;81.39;102044.50;5059799;28;19921;-67
2021/12/12 11:21:24;;;;;;;9.40;5.40;;;;;;;12.22;82.99;102049.84;5057403;28;20052;-70
2021/12/12 11:23:57;;;;;;;8.60;5.63;;;;;;;12.30;82.92;102046.41;5072623;28;20052;-69
2021/12/12 11:26:40;;;;;;;11.82;5.70;;;;;;;12.16;83.67;102034.41;5070783;28;20373;-69
2021/12/12 11:29:14;;;;;;;7.43;4.93;;;;;;;12.30;83.65;102038.97;5058737;28;20048;-70
2021/12/12 11:31:43;;;;;;;7.93;5.07;;;;;;;12.12;83.94;102045.22;5038968;28;20056;-68
2021/12/12 11:34:11;;;;;;;8.00;5.32;;;;;;;12.50;83.93;102043.41;5072006;28;20048;-70
2021/12/12 11:36:59;;;;;;;8.60;5.13;;;;;;;12.82;81.99;102040.00;5069978;28;20059;-71
2021/12/12 11:39:35;;;;;;;8.00;5.07;;;;;;;12.68;82.04;102039.91;5047337;28;20059;-70
2021/12/12 11:42:10;;;;;;;8.18;5.15;;;;;;;12.49;83.07;102036.25;5050749;28;20069;-72
2021/12/12 11:44:50;;;;;;;8.23;5.45;;;;;;;12.45;83.42;102035.19;5074197;28;20067;-71
2021/12/12 11:47:53;;;;;;;8.85;4.55;;;;;;;12.53;84.01;102037.31;5057132;28;20060;-72
2021/12/12 11:50:46;;;;;;;6.30;4.47;;;;;;;12.42;84.13;102039.38;5062158;28;20048;-72
2021/12/12 11:53:18;;;;;;;6.82;4.53;;;;;;;12.50;83.85;102034.31;5079145;28;20626;-72
2021/12/12 11:55:45;;;;;;;7.60;4.57;;;;;;;12.57;84.01;102043.88;5068091;28;20051;-71
2021/12/12 11:58:39;;;;;;;9.45;5.18;;;;;;;12.66;83.92;102035.81;5064244;28;20048;-72
2021/12/12 12:01:15;;;;;;;7.68;4.47;;;;;;;12.72;83.42;102034.59;5063941;28;20049;-71
2021/12/12 12:04:01;;;;;;;6.78;4.47;;;;;;;12.65;83.74;102034.13;5056296;28;20420;-70
2021/12/12 12:06:35;;;;;;;6.70;4.13;;;;;;;12.76;83.74;102039.22;5063190;28;20041;-71
2021/12/12 12:09:33;;;;;;;10.80;5.65;;;;;;;12.97;82.51;102032.31;5062435;28;20067;-71
2021/12/12 12:12:19;;;;;;;8.00;4.55;;;;;;;13.04;82.36;102026.47;5062863;28;20045;-71
2021/12/12 12:15:04;;;;;;;8.25;4.85;;;;;;;13.52;80.63;102033.47;5064839;28;20048;-71
2021/12/12 12:17:50;;;;;;;6.20;4.07;;;;;;;13.46;79.01;102034.66;5062313;28;20479;-72